Time;durP1;ratioP1;P1;durP2;ratioP2;P2;SDS_P1;SDS_P2;PMS_P1;PMS_P2;Temp;Humidity;BMP_temperature;BMP_pressure;BME280_temperature;BME280_humidity;BME280_pressure;Samples;Min_cycle;Max_cycle;Signal;HPM_P1;HPM_P2
2023/11/28 00:01:23;;;;;;;8.27;5.28;;;2.80;99.90;;;;;;4906128;28;92973;-77
2023/11/28 00:04:03;;;;;;;8.10;5.05;;;2.80;99.90;;;;;;4930838;28;91382;-77
2023/11/28 00:06:43;;;;;;;8.38;5.40;;;2.70;99.90;;;;;;4946442;28;88553;-77
2023/11/28 00:09:15;;;;;;;8.27;5.22;;;2.70;99.90;;;;;;4946740;28;87696;-77
2023/11/28 00:11:46;;;;;;;9.35;5.63;;;2.70;99.90;;;;;;4928472;28;92290;-77
2023/11/28 00:14:51;;;;;;;9.27;6.03;;;2.70;99.90;;;;;;4927093;28;92048;-77
2023/11/28 00:17:23;;;;;;;12.07;6.80;;;2.70;99.90;;;;;;4935949;28;87244;-77
2023/11/28 00:19:57;;;;;;;10.80;6.40;;;2.70;99.90;;;;;;4926078;28;87634;-77
2023/11/28 00:22:23;;;;;;;;;;;2.70;99.90;;;;;;4940130;28;90634;-78
2023/11/28 00:25:04;;;;;;;11.75;6.28;;;2.70;99.90;;;;;;4950322;28;90867;-77
2023/11/28 00:27:35;;;;;;;10.32;6.13;;;2.70;99.90;;;;;;4924744;28;91359;-77
2023/11/28 00:30:04;;;;;;;9.60;6.25;;;2.70;99.90;;;;;;4945012;28;87426;-77
2023/11/28 00:32:40;;;;;;;12.27;7.25;;;2.70;99.90;;;;;;4925657;28;90354;-77
2023/11/28 00:35:14;;;;;;;10.52;6.50;;;2.70;99.90;;;;;;4914304;28;90635;-77
2023/11/28 00:37:57;;;;;;;11.80;7.30;;;2.70;99.90;;;;;;4934011;28;88194;-77
2023/11/28 00:40:34;;;;;;;10.63;6.40;;;2.70;99.90;;;;;;4956190;28;87537;-77
2023/11/28 00:43:05;;;;;;;12.90;7.38;;;2.70;99.90;;;;;;4926649;28;92086;-77
2023/11/28 00:45:31;;;;;;;12.13;7.05;;;2.70;99.90;;;;;;4926484;28;92031;-77
2023/11/28 00:47:56;;;;;;;13.10;7.68;;;2.70;99.90;;;;;;4927235;28;90897;-77
2023/11/28 00:50:22;;;;;;;13.90;7.85;;;2.70;99.90;;;;;;4924096;28;88345;-77
2023/11/28 00:52:49;;;;;;;13.23;7.75;;;2.70;99.90;;;;;;4942396;28;88190;-77
2023/11/28 00:55:15;;;;;;;14.50;6.90;;;2.70;99.90;;;;;;4944922;28;88182;-77
2023/11/28 00:57:44;;;;;;;14.13;8.05;;;2.60;99.90;;;;;;4943571;28;87826;-77
2023/11/28 01:00:12;;;;;;;13.18;7.80;;;2.70;99.90;;;;;;4924019;28;87688;-77
2023/11/28 01:02:38;;;;;;;13.02;7.53;;;2.70;99.90;;;;;;4942772;28;87570;-77
2023/11/28 01:05:04;;;;;;;12.95;7.88;;;2.70;99.90;;;;;;4942040;28;88615;-77
2023/11/28 01:07:30;;;;;;;11.45;7.28;;;2.70;99.90;;;;;;4943414;28;89781;-77
2023/11/28 01:09:56;;;;;;;15.63;8.60;;;2.70;99.90;;;;;;4926507;28;87743;-77
2023/11/28 01:12:22;;;;;;;14.25;8.77;;;2.70;99.90;;;;;;4943981;28;87811;-77
2023/11/28 01:14:48;;;;;;;15.52;8.73;;;2.70;99.90;;;;;;4942502;28;88660;-77
2023/11/28 01:17:14;;;;;;;15.75;8.93;;;2.70;99.90;;;;;;4934775;28;89474;-77
2023/11/28 01:19:40;;;;;;;15.13;8.32;;;2.70;99.90;;;;;;4924086;28;88114;-77
2023/11/28 01:22:11;;;;;;;16.75;9.27;;;2.80;99.90;;;;;;4925311;28;89858;-77
2023/11/28 01:24:37;;;;;;;15.50;8.82;;;2.80;99.90;;;;;;4942715;28;88876;-77
2023/11/28 01:27:04;;;;;;;15.07;8.73;;;2.80;99.90;;;;;;4923653;28;90358;-77
2023/11/28 01:29:30;;;;;;;17.40;9.55;;;2.80;99.90;;;;;;4924166;28;88162;-77
2023/11/28 01:31:56;;;;;;;16.98;9.50;;;2.80;99.90;;;;;;4924301;28;89559;-77
2023/11/28 01:34:21;;;;;;;14.52;8.40;;;2.80;99.90;;;;;;4942809;28;88669;-77
2023/11/28 01:36:48;;;;;;;15.73;9.15;;;2.80;99.90;;;;;;4924121;28;91083;-77
2023/11/28 01:39:14;;;;;;;16.52;9.05;;;2.80;99.90;;;;;;4923304;28;89617;-77
2023/11/28 01:41:41;;;;;;;18.50;9.20;;;2.80;99.90;;;;;;4942083;28;87694;-77
2023/11/28 01:44:07;;;;;;;16.50;9.20;;;2.90;99.90;;;;;;4924225;28;90230;-77
2023/11/28 01:46:35;;;;;;;14.73;8.60;;;2.90;99.90;;;;;;4943131;28;88044;-77
2023/11/28 01:49:06;;;;;;;14.27;8.55;;;2.90;99.90;;;;;;4956172;28;88286;-77
2023/11/28 01:51:32;;;;;;;16.05;7.68;;;2.90;99.90;;;;;;4940406;28;88747;-77
2023/11/28 01:54:02;;;;;;;14.10;8.63;;;2.90;99.90;;;;;;4924507;28;91859;-76
2023/11/28 01:56:28;;;;;;;14.63;8.32;;;2.90;99.90;;;;;;4942407;28;88182;-78
2023/11/28 01:58:56;;;;;;;16.50;9.00;;;3.00;99.90;;;;;;4940453;28;87975;-78
2023/11/28 02:01:23;;;;;;;16.33;8.38;;;3.00;99.90;;;;;;4930338;28;89435;-77
2023/11/28 02:03:50;;;;;;;20.33;10.23;;;3.00;99.90;;;;;;4940904;28;89350;-77
2023/11/28 02:06:16;;;;;;;14.63;8.30;;;3.00;99.90;;;;;;4922256;28;92454;-77
2023/11/28 02:08:42;;;;;;;15.73;8.27;;;3.00;99.90;;;;;;4924228;28;87959;-77
2023/11/28 02:11:08;;;;;;;15.13;8.02;;;3.00;99.90;;;;;;4942344;28;87697;-77
2023/11/28 02:13:34;;;;;;;16.73;7.63;;;3.10;99.90;;;;;;4923248;28;90983;-77
2023/11/28 02:16:12;;;;;;;13.65;8.23;;;3.10;99.90;;;;;;4916038;28;91108;-77
2023/11/28 02:18:38;;;;;;;15.18;8.85;;;3.00;99.90;;;;;;4915750;28;89061;-77
2023/11/28 02:21:04;;;;;;;12.48;7.22;;;3.10;99.90;;;;;;4941332;28;87372;-77
2023/11/28 02:23:31;;;;;;;12.73;7.35;;;3.10;99.90;;;;;;4924000;28;92081;-77
2023/11/28 02:26:02;;;;;;;13.23;7.60;;;3.10;99.90;;;;;;4924779;28;90558;-78
2023/11/28 02:28:27;;;;;;;11.32;6.68;;;3.10;99.90;;;;;;4940968;28;88814;-77
2023/11/28 02:30:58;;;;;;;11.82;7.20;;;3.10;99.90;;;;;;4926151;28;90517;-77
2023/11/28 02:33:24;;;;;;;13.05;8.38;;;3.00;99.90;;;;;;4925077;28;90365;-77
2023/11/28 02:35:51;;;;;;;14.05;8.18;;;3.10;99.90;;;;;;4943305;28;88329;-77
2023/11/28 02:38:17;;;;;;;12.80;8.18;;;3.10;99.90;;;;;;4942611;28;87485;-77
2023/11/28 02:40:42;;;;;;;13.70;8.63;;;3.10;99.90;;;;;;4941528;28;87793;-77
2023/11/28 02:43:08;;;;;;;14.18;8.40;;;3.10;99.90;;;;;;4941689;28;88700;-77
2023/11/28 02:45:34;;;;;;;13.93;8.57;;;3.10;99.90;;;;;;4922633;28;90604;-77
2023/11/28 02:48:00;;;;;;;18.10;9.27;;;3.10;99.90;;;;;;4913096;28;89019;-77
2023/11/28 02:50:26;;;;;;;14.57;9.15;;;3.10;99.90;;;;;;4955799;28;88470;-77
2023/11/28 02:52:55;;;;;;;14.63;8.95;;;3.10;99.90;;;;;;4922969;28;92931;-77
2023/11/28 02:55:21;;;;;;;13.45;9.23;;;3.10;99.90;;;;;;4924606;28;90900;-77
2023/11/28 02:57:47;;;;;;;15.75;9.93;;;3.10;99.90;;;;;;4922841;28;87497;-77
2023/11/28 03:00:13;;;;;;;14.65;9.15;;;3.10;99.90;;;;;;4955562;28;90663;-77
2023/11/28 03:02:39;;;;;;;15.05;9.27;;;3.10;99.90;;;;;;4942919;28;89668;-77
2023/11/28 03:05:06;;;;;;;15.93;10.27;;;3.10;99.90;;;;;;4916650;28;90221;-77
2023/11/28 03:07:32;;;;;;;15.90;10.07;;;3.10;99.90;;;;;;4917003;28;87921;-77
2023/11/28 03:09:58;;;;;;;16.90;10.48;;;3.10;99.90;;;;;;4945001;28;86832;-77
2023/11/28 03:12:24;;;;;;;15.45;10.27;;;3.10;99.90;;;;;;4925084;28;91600;-77
2023/11/28 03:14:49;;;;;;;13.95;9.15;;;3.10;99.90;;;;;;4925756;28;91076;-77
2023/11/28 03:17:15;;;;;;;15.35;8.85;;;3.10;99.90;;;;;;4925172;28;89429;-76
2023/11/28 03:19:41;;;;;;;13.80;9.07;;;3.10;99.90;;;;;;4925602;28;88373;-77
2023/11/28 03:22:06;;;;;;;15.40;9.77;;;3.10;99.90;;;;;;4925852;28;91620;-77
2023/11/28 03:24:33;;;;;;;16.08;10.00;;;3.10;99.90;;;;;;4944540;28;87988;-77
2023/11/28 03:26:59;;;;;;;16.77;10.20;;;3.10;99.90;;;;;;4926114;28;87841;-78
2023/11/28 03:29:24;;;;;;;15.20;9.52;;;3.20;99.90;;;;;;4923823;28;90786;-77
2023/11/28 03:31:50;;;;;;;18.63;11.35;;;3.20;99.90;;;;;;4944355;28;89013;-77
2023/11/28 03:34:16;;;;;;;16.17;10.15;;;3.20;99.90;;;;;;4945554;28;88615;-77
2023/11/28 03:36:42;;;;;;;17.33;11.15;;;3.20;99.90;;;;;;4944133;28;88562;-77
2023/11/28 03:39:07;;;;;;;15.38;10.10;;;3.20;99.90;;;;;;4930982;28;91231;-77
2023/11/28 03:41:33;;;;;;;16.52;10.20;;;3.20;99.90;;;;;;4942393;28;89151;-77
2023/11/28 03:44:00;;;;;;;16.92;9.48;;;3.10;99.90;;;;;;4925946;28;91960;-77
2023/11/28 03:46:26;;;;;;;15.57;9.52;;;3.10;99.90;;;;;;4958885;28;87774;-77
2023/11/28 03:48:51;;;;;;;15.13;9.65;;;3.10;99.90;;;;;;4927485;28;95120;-77
2023/11/28 03:51:17;;;;;;;17.55;10.27;;;3.10;99.90;;;;;;4925190;28;91540;-77
2023/11/28 03:53:43;;;;;;;16.52;9.55;;;3.10;99.90;;;;;;4925493;28;91488;-77
2023/11/28 03:56:09;;;;;;;14.95;9.55;;;3.10;99.90;;;;;;4925106;28;87953;-77
2023/11/28 03:58:35;;;;;;;14.55;9.57;;;3.10;99.90;;;;;;4925755;28;90529;-77
2023/11/28 04:01:02;;;;;;;16.05;10.10;;;3.10;99.90;;;;;;4927587;28;91404;-77
2023/11/28 04:03:28;;;;;;;13.85;8.55;;;3.10;99.90;;;;;;4923863;28;91889;-77
2023/11/28 04:05:55;;;;;;;14.05;8.40;;;3.10;99.90;;;;;;4923297;28;89367;-77
2023/11/28 04:08:21;;;;;;;12.25;8.20;;;3.00;99.90;;;;;;4942982;28;95612;-77
2023/11/28 04:10:47;;;;;;;13.85;8.68;;;3.00;99.90;;;;;;4944072;28;91545;-77
2023/11/28 04:13:12;;;;;;;13.65;8.15;;;3.00;99.90;;;;;;4927254;28;92131;-77
2023/11/28 04:15:41;;;;;;;12.75;8.55;;;3.00;99.90;;;;;;4925633;28;87664;-77
2023/11/28 04:18:10;;;;;;;13.07;8.52;;;3.00;99.90;;;;;;4930157;28;90827;-78
2023/11/28 04:20:36;;;;;;;11.80;7.85;;;2.90;99.90;;;;;;4950943;28;88613;-77
2023/11/28 04:23:04;;;;;;;12.75;8.25;;;2.90;99.90;;;;;;4933697;28;91805;-77
2023/11/28 04:25:30;;;;;;;12.90;8.52;;;2.90;99.90;;;;;;4951665;28;87566;-77
2023/11/28 04:27:58;;;;;;;15.15;7.72;;;2.90;99.90;;;;;;4931694;28;90714;-77
2023/11/28 04:30:23;;;;;;;14.52;8.57;;;2.90;99.90;;;;;;4947865;28;91729;-78
2023/11/28 04:32:49;;;;;;;13.82;8.50;;;3.00;99.90;;;;;;4933425;28;92860;-78
2023/11/28 04:35:15;;;;;;;13.13;8.27;;;3.00;99.90;;;;;;4934267;28;88038;-77
2023/11/28 04:37:40;;;;;;;13.25;8.10;;;3.00;99.90;;;;;;4942267;28;87526;-77
2023/11/28 04:40:07;;;;;;;12.68;8.10;;;3.00;99.90;;;;;;4948686;28;90648;-77
2023/11/28 04:42:33;;;;;;;12.55;8.02;;;3.00;99.90;;;;;;4932481;28;92510;-77
2023/11/28 04:44:58;;;;;;;13.30;8.05;;;3.00;99.90;;;;;;4932798;28;87406;-77
2023/11/28 04:47:24;;;;;;;12.73;7.68;;;3.00;99.90;;;;;;4932535;28;91466;-77
2023/11/28 04:49:50;;;;;;;13.00;8.30;;;3.00;99.90;;;;;;4932656;28;93505;-77
2023/11/28 04:52:16;;;;;;;12.13;8.07;;;2.90;99.90;;;;;;4933169;28;90818;-78
2023/11/28 04:54:41;;;;;;;11.55;7.75;;;2.90;99.90;;;;;;4933695;28;88451;-77
2023/11/28 04:57:07;;;;;;;13.07;7.97;;;3.00;99.90;;;;;;4930986;28;89737;-77
2023/11/28 04:59:33;;;;;;;13.63;8.25;;;2.90;99.90;;;;;;4950592;28;88288;-77
2023/11/28 05:01:58;;;;;;;15.50;9.63;;;2.90;99.90;;;;;;4929944;28;91083;-77
2023/11/28 05:04:24;;;;;;;14.80;9.40;;;2.90;99.90;;;;;;4931001;28;87917;-77
2023/11/28 05:06:50;;;;;;;16.50;9.68;;;2.90;99.90;;;;;;4949621;28;88313;-77
2023/11/28 05:09:20;;;;;;;20.33;11.07;;;2.90;99.90;;;;;;4944600;28;89031;-77
2023/11/28 05:11:49;;;;;;;18.60;10.52;;;2.90;99.90;;;;;;4923661;28;90326;-77
2023/11/28 05:14:14;;;;;;;16.42;10.05;;;2.90;99.90;;;;;;4944611;28;87539;-77
2023/11/28 05:16:40;;;;;;;15.38;9.80;;;2.90;99.90;;;;;;4944891;28;87914;-77
2023/11/28 05:19:07;;;;;;;16.33;9.80;;;2.90;99.90;;;;;;4947984;28;89463;-77
2023/11/28 05:21:33;;;;;;;15.15;9.20;;;2.90;99.90;;;;;;4925799;28;93301;-77
2023/11/28 05:23:58;;;;;;;18.55;10.55;;;2.90;99.90;;;;;;4925059;28;88566;-77
2023/11/28 05:26:24;;;;;;;16.90;10.07;;;2.90;99.90;;;;;;4943384;28;87454;-77
2023/11/28 05:28:51;;;;;;;15.88;9.82;;;2.80;99.90;;;;;;4924193;28;88984;-77
2023/11/28 05:31:17;;;;;;;16.23;10.05;;;2.90;99.90;;;;;;4950808;28;88534;-77
2023/11/28 05:33:42;;;;;;;18.02;10.40;;;2.90;99.90;;;;;;4931620;28;87294;-77
2023/11/28 05:36:08;;;;;;;16.55;9.93;;;2.80;99.90;;;;;;4951088;28;87211;-77
2023/11/28 05:38:34;;;;;;;16.95;10.52;;;2.80;99.90;;;;;;4933703;28;90015;-77
2023/11/28 05:41:00;;;;;;;16.02;10.05;;;2.80;99.90;;;;;;4930875;28;91814;-77
2023/11/28 05:43:29;;;;;;;15.88;9.43;;;2.80;99.90;;;;;;4932250;28;88512;-77
2023/11/28 05:45:55;;;;;;;15.35;9.77;;;2.80;99.90;;;;;;4950613;28;90829;-77
2023/11/28 05:48:21;;;;;;;16.48;10.05;;;2.80;99.90;;;;;;4949704;28;89279;-77
2023/11/28 05:50:47;;;;;;;14.38;8.90;;;2.70;99.90;;;;;;4932265;28;92012;-77
2023/11/28 05:53:12;;;;;;;17.85;9.45;;;2.70;99.90;;;;;;4931562;28;87863;-77
2023/11/28 05:55:39;;;;;;;17.15;10.55;;;2.80;99.90;;;;;;4963092;28;88788;-77
2023/11/28 05:58:05;;;;;;;16.13;10.15;;;2.80;99.90;;;;;;4931532;28;91773;-77
2023/11/28 06:00:31;;;;;;;15.57;9.77;;;2.80;99.90;;;;;;4930849;28;90649;-77
2023/11/28 06:02:56;;;;;;;15.60;9.45;;;2.80;99.90;;;;;;4932175;28;87504;-77
2023/11/28 06:05:22;;;;;;;16.58;10.77;;;2.80;99.90;;;;;;4931548;28;89326;-77
2023/11/28 06:07:49;;;;;;;17.67;10.13;;;2.80;99.90;;;;;;4929769;28;90913;-77
2023/11/28 06:10:15;;;;;;;20.45;11.02;;;2.80;99.90;;;;;;4949943;28;89856;-77
2023/11/28 06:12:41;;;;;;;19.05;11.48;;;2.80;99.90;;;;;;4930426;28;88924;-77
2023/11/28 06:15:07;;;;;;;18.90;11.30;;;2.80;99.90;;;;;;4930972;28;89836;-77
2023/11/28 06:17:33;;;;;;;18.95;11.68;;;2.80;99.90;;;;;;4927969;28;92192;-77
2023/11/28 06:19:59;;;;;;;17.35;11.10;;;2.80;99.90;;;;;;4941925;28;88165;-77
2023/11/28 06:22:24;;;;;;;23.02;11.15;;;2.70;99.90;;;;;;4941841;28;87608;-77
2023/11/28 06:24:50;;;;;;;16.70;11.10;;;2.70;99.90;;;;;;4939435;28;87241;-77
2023/11/28 06:27:16;;;;;;;20.20;11.90;;;2.70;99.90;;;;;;4912882;28;90176;-77
2023/11/28 06:29:43;;;;;;;18.52;11.15;;;2.70;99.90;;;;;;4942140;28;88382;-77
2023/11/28 06:32:09;;;;;;;17.92;11.73;;;2.70;99.90;;;;;;4922530;28;88773;-77
2023/11/28 06:34:35;;;;;;;21.15;12.55;;;2.70;99.90;;;;;;4922531;28;88951;-77
2023/11/28 06:37:00;;;;;;;21.90;13.13;;;2.70;99.90;;;;;;4943297;28;87313;-77
2023/11/28 06:39:27;;;;;;;21.92;13.20;;;2.70;99.90;;;;;;4926880;28;91566;-77
2023/11/28 06:41:53;;;;;;;18.08;11.35;;;2.70;99.90;;;;;;4944108;28;87913;-77
2023/11/28 06:44:20;;;;;;;20.63;12.23;;;2.70;99.90;;;;;;4925168;28;87577;-77
2023/11/28 06:46:49;;;;;;;22.60;12.25;;;2.60;99.90;;;;;;4950748;28;88072;-77
2023/11/28 06:49:15;;;;;;;17.75;11.45;;;2.60;99.90;;;;;;4952788;28;88584;-77
2023/11/28 06:51:41;;;;;;;21.52;12.32;;;2.60;99.90;;;;;;4933303;28;87940;-77
2023/11/28 06:54:06;;;;;;;20.65;11.65;;;2.60;99.90;;;;;;4934604;28;89307;-77
2023/11/28 06:56:32;;;;;;;22.23;12.43;;;2.60;99.90;;;;;;4933762;28;92555;-77
2023/11/28 06:58:58;;;;;;;18.17;11.02;;;2.60;99.90;;;;;;4952022;28;89057;-77
2023/11/28 07:01:24;;;;;;;20.00;12.60;;;2.60;99.90;;;;;;4935010;28;87625;-77
2023/11/28 07:03:50;;;;;;;21.83;12.20;;;2.60;99.90;;;;;;4932237;28;88536;-77
2023/11/28 07:06:15;;;;;;;17.92;11.50;;;2.60;99.90;;;;;;4949986;28;88304;-77
2023/11/28 07:08:41;;;;;;;16.88;11.18;;;2.50;99.90;;;;;;4932114;28;90676;-77
2023/11/28 07:11:16;;;;;;;16.77;11.02;;;2.50;99.90;;;;;;4933043;28;87774;-77
2023/11/28 07:13:42;;;;;;;17.35;10.80;;;2.50;99.90;;;;;;4932870;28;89296;-77
2023/11/28 07:16:08;;;;;;;15.63;9.63;;;2.50;99.90;;;;;;4934304;28;91284;-77
2023/11/28 07:18:34;;;;;;;12.77;8.73;;;2.50;99.90;;;;;;4934185;28;92272;-77
2023/11/28 07:21:00;;;;;;;11.73;8.43;;;2.40;99.90;;;;;;4951550;28;89203;-78
2023/11/28 07:23:26;;;;;;;13.77;8.32;;;2.40;99.90;;;;;;4935007;28;93451;-77
2023/11/28 07:25:52;;;;;;;14.52;8.25;;;2.40;99.90;;;;;;4949827;28;88539;-77
2023/11/28 07:28:18;;;;;;;12.55;7.80;;;2.30;99.90;;;;;;4953052;28;88441;-77
2023/11/28 07:30:45;;;;;;;12.40;7.32;;;2.30;99.90;;;;;;4944947;28;87836;-77
2023/11/28 07:33:11;;;;;;;12.57;7.57;;;2.20;99.90;;;;;;4931030;28;90935;-78
2023/11/28 07:35:37;;;;;;;11.10;6.63;;;2.20;99.90;;;;;;4956847;28;87801;-77
2023/11/28 07:38:03;;;;;;;10.18;5.88;;;2.20;99.90;;;;;;4956208;28;89023;-77
2023/11/28 07:40:30;;;;;;;10.75;6.03;;;2.20;99.90;;;;;;4935059;28;87924;-77
2023/11/28 07:42:56;;;;;;;6.78;4.72;;;2.10;99.90;;;;;;4945819;28;88109;-78
2023/11/28 07:45:21;;;;;;;7.07;4.97;;;2.10;99.90;;;;;;4945389;28;89545;-77
2023/11/28 07:47:47;;;;;;;7.13;4.25;;;2.00;99.90;;;;;;4945690;28;88666;-77
2023/11/28 07:50:13;;;;;;;5.72;3.90;;;2.00;99.90;;;;;;4937090;28;88282;-77
2023/11/28 07:52:39;;;;;;;7.07;4.45;;;1.90;99.90;;;;;;4958851;28;87450;-77
2023/11/28 07:55:07;;;;;;;8.48;4.18;;;1.90;99.90;;;;;;4939364;28;91262;-77
2023/11/28 07:57:36;;;;;;;7.00;4.72;;;1.90;99.90;;;;;;4956917;28;88951;-77
2023/11/28 08:00:04;;;;;;;6.03;4.05;;;1.80;99.90;;;;;;4930053;28;87787;-77
2023/11/28 08:02:30;;;;;;;9.35;4.07;;;1.80;99.90;;;;;;4937491;28;90207;-77
2023/11/28 08:04:56;;;;;;;6.68;4.20;;;1.80;99.90;;;;;;4945923;28;92006;-77
2023/11/28 08:07:22;;;;;;;8.23;4.28;;;1.80;99.90;;;;;;4938996;28;91282;-77
2023/11/28 08:09:51;;;;;;;6.82;4.13;;;1.80;99.90;;;;;;4937896;28;88921;-77
2023/11/28 08:12:20;;;;;;;7.15;4.53;;;1.90;99.90;;;;;;4950465;28;90164;-77
2023/11/28 08:14:46;;;;;;;7.30;4.40;;;1.80;99.90;;;;;;4938346;28;91220;-76
2023/11/28 08:17:14;;;;;;;7.13;4.57;;;1.80;99.90;;;;;;4971119;28;89837;-77
2023/11/28 08:19:40;;;;;;;8.10;4.50;;;1.90;99.90;;;;;;4938328;28;88018;-77
2023/11/28 08:22:06;;;;;;;5.85;4.07;;;1.90;99.90;;;;;;4957592;28;87884;-76
2023/11/28 08:24:32;;;;;;;6.68;3.45;;;1.80;99.90;;;;;;4929825;28;90123;-77
2023/11/28 08:26:57;;;;;;;7.82;4.10;;;1.90;99.90;;;;;;4957950;28;87920;-77
2023/11/28 08:29:23;;;;;;;7.60;3.70;;;1.90;99.90;;;;;;4938853;28;87734;-77
2023/11/28 08:31:50;;;;;;;7.43;3.92;;;1.90;99.90;;;;;;4955582;28;87650;-77
2023/11/28 08:34:17;;;;;;;7.35;4.28;;;1.90;99.90;;;;;;4938929;28;91994;-77
2023/11/28 08:36:43;;;;;;;7.53;3.92;;;1.90;99.90;;;;;;4943200;28;88026;-77
2023/11/28 08:39:09;;;;;;;8.02;4.18;;;1.90;99.90;;;;;;4925874;28;88176;-77
2023/11/28 08:41:35;;;;;;;6.55;4.13;;;1.90;99.90;;;;;;4924561;28;89561;-77
2023/11/28 08:44:00;;;;;;;7.03;3.80;;;1.90;99.90;;;;;;4943523;28;88136;-77
2023/11/28 08:46:26;;;;;;;7.55;3.92;;;2.00;99.90;;;;;;4925852;28;92076;-76
2023/11/28 08:48:52;;;;;;;7.90;4.25;;;2.00;99.90;;;;;;4944526;28;87721;-76
2023/11/28 08:51:18;;;;;;;6.40;3.50;;;2.00;99.90;;;;;;4923322;28;90456;-77
2023/11/28 08:53:45;;;;;;;7.38;3.63;;;2.00;99.90;;;;;;4926683;28;89323;-76
2023/11/28 08:56:17;;;;;;;6.35;3.80;;;2.00;99.90;;;;;;4925475;28;90528;-77
2023/11/28 08:58:43;;;;;;;5.83;3.80;;;2.00;99.90;;;;;;4933993;28;89277;-77
2023/11/28 09:01:09;;;;;;;6.82;3.78;;;2.00;99.90;;;;;;4946791;28;87254;-77
2023/11/28 09:03:35;;;;;;;6.90;3.95;;;2.10;99.90;;;;;;4928331;28;91981;-77
2023/11/28 09:06:04;;;;;;;6.20;4.03;;;2.10;99.90;;;;;;4943841;28;87929;-76
2023/11/28 09:08:54;;;;;;;7.57;3.95;;;2.20;99.90;;;;;;4929229;28;87907;-77
2023/11/28 09:11:20;;;;;;;5.75;3.70;;;2.20;99.90;;;;;;4925519;28;88310;-77
2023/11/28 09:13:46;;;;;;;7.03;3.58;;;2.30;99.90;;;;;;4937981;28;90377;-77
2023/11/28 09:16:12;;;;;;;7.18;3.67;;;2.30;99.90;;;;;;4943265;28;91831;-77
2023/11/28 09:19:41;;;;;;;;;;;;;;;;;;;;;
2023/11/28 09:22:19;;;;;;;7.13;3.63;;;2.30;99.90;;;;;;4878221;28;121402;-78
2023/11/28 09:24:55;;;;;;;6.72;3.95;;;2.40;99.90;;;;;;4929644;28;91792;-77
2023/11/28 09:27:42;;;;;;;;;;;;;;;;;;;;;
2023/11/28 09:31:02;;;;;;;6.28;3.47;;;2.50;99.90;;;;;;4934216;28;109278;-77
2023/11/28 09:36:56;;;;;;;10.38;3.75;;;2.70;99.90;;;;;;4862815;28;87843;-78
2023/11/28 09:39:32;;;;;;;7.60;4.10;;;2.70;99.90;;;;;;4948026;28;95150;-78
2023/11/28 09:42:18;;;;;;;5.40;3.50;;;2.80;99.90;;;;;;4945094;28;87532;-78
2023/11/28 09:45:08;;;;;;;7.63;3.90;;;2.80;99.90;;;;;;4930840;28;89430;-77
2023/11/28 09:51:01;;;;;;;7.35;4.38;;;2.90;99.90;;;;;;4930908;28;89719;-77
2023/11/28 09:54:24;;;;;;;7.32;3.95;;;3.00;99.90;;;;;;4946749;28;88861;-78
2023/11/28 10:14:45;;;;;;;6.63;3.75;;;3.30;99.90;;;;;;4859637;29;88095;-78
2023/11/28 10:25:03;;;;;;;6.93;3.63;;;3.40;99.90;;;;;;4790847;29;89944;-78
2023/11/28 10:42:05;;;;;;;5.13;3.20;;;4.30;99.90;;;;;;4706429;29;92427;-78
2023/11/28 10:57:44;;;;;;;;;;;;;;;;;;;;;
2023/11/28 11:01:14;;;;;;;;;;;;;;;;;;;;;
2023/11/28 11:04:35;;;;;;;;;;;;;;;;;;;;;
2023/11/28 11:22:02;;;;;;;2.85;2.28;;;5.50;99.90;;;;;;4774591;29;87902;-77
2023/11/28 13:52:58;;;;;;;4.32;2.30;;;11.20;75.30;;;;;;4919654;28;89224;-78
2023/11/28 13:55:24;;;;;;;2.85;1.98;;;11.40;71.60;;;;;;4920540;28;88354;-78
2023/11/28 13:57:50;;;;;;;2.35;1.83;;;11.40;71.60;;;;;;4915946;28;90069;-78
2023/11/28 14:00:17;;;;;;;2.88;2.00;;;11.40;69.80;;;;;;4926171;28;87909;-78
2023/11/28 14:02:44;;;;;;;2.53;2.05;;;11.50;73.50;;;;;;4934103;28;87783;-78
2023/11/28 14:05:10;;;;;;;3.90;2.15;;;11.60;73.60;;;;;;4935843;28;87968;-77
2023/11/28 14:07:36;;;;;;;4.38;2.55;;;11.60;69.10;;;;;;4936160;28;88783;-77
2023/11/28 14:10:03;;;;;;;4.00;2.15;;;11.40;71.20;;;;;;4934824;28;88409;-77
2023/11/28 14:12:28;;;;;;;2.63;1.98;;;11.30;70.50;;;;;;4921368;28;87625;-77
2023/11/28 14:14:54;;;;;;;3.42;2.08;;;11.20;73.80;;;;;;4934857;28;87947;-77
2023/11/28 14:17:20;;;;;;;2.70;1.83;;;11.00;74.20;;;;;;4935307;28;89990;-78
2023/11/28 14:19:46;;;;;;;3.45;1.70;;;10.80;72.90;;;;;;4934634;28;89274;-77
2023/11/28 14:22:12;;;;;;;2.25;1.55;;;10.80;71.50;;;;;;4936819;28;87464;-77
2023/11/28 14:24:38;;;;;;;1.85;1.52;;;10.80;70.40;;;;;;4935362;28;88431;-78
2023/11/28 14:27:06;;;;;;;1.98;1.70;;;10.80;73.60;;;;;;5195319;23;90194;-77
2023/11/28 14:29:31;;;;;;;1.90;1.60;;;10.70;73.10;;;;;;4925446;28;91610;-77
2023/11/28 14:31:58;;;;;;;3.47;1.98;;;10.90;74.90;;;;;;4929282;28;87499;-77
2023/11/28 14:34:25;;;;;;;2.75;2.08;;;10.90;74.40;;;;;;4929209;28;90277;-77
2023/11/28 14:36:50;;;;;;;4.10;2.40;;;10.90;69.20;;;;;;4928985;28;91002;-76
2023/11/28 14:39:16;;;;;;;4.65;1.95;;;11.00;68.90;;;;;;4928629;28;90850;-76
2023/11/28 14:41:42;;;;;;;4.80;2.20;;;11.00;72.70;;;;;;4927715;28;88566;-76
2023/11/28 14:44:09;;;;;;;3.92;2.10;;;11.00;71.00;;;;;;4929160;28;89207;-76
2023/11/28 14:46:38;;;;;;;2.47;2.00;;;11.00;72.60;;;;;;4945706;28;88803;-78
2023/11/28 14:49:04;;;;;;;2.42;1.85;;;11.00;67.90;;;;;;4944945;28;88496;-78
2023/11/28 14:51:30;;;;;;;2.63;1.70;;;10.70;71.00;;;;;;4928005;28;88473;-77
2023/11/28 14:53:56;;;;;;;2.78;1.70;;;10.70;73.30;;;;;;4946240;28;87794;-76
2023/11/28 14:56:22;;;;;;;1.77;1.50;;;10.40;74.20;;;;;;4934752;28;88451;-77
2023/11/28 14:58:50;;;;;;;2.80;1.85;;;10.00;75.20;;;;;;4905626;28;101660;-76
2023/11/28 15:01:17;;;;;;;4.18;2.10;;;9.60;76.70;;;;;;4883893;28;87842;-76
2023/11/28 15:03:43;;;;;;;7.95;3.13;;;9.30;77.70;;;;;;4934014;28;87660;-77
2023/11/28 15:06:08;;;;;;;4.97;3.70;;;8.80;80.40;;;;;;4921436;28;92664;-76
2023/11/28 15:08:34;;;;;;;6.35;4.60;;;8.50;81.70;;;;;;4948884;28;89897;-76
2023/11/28 15:11:00;;;;;;;8.40;5.13;;;8.20;85.60;;;;;;4949331;28;87762;-76
2023/11/28 15:13:26;;;;;;;6.72;4.95;;;7.90;86.60;;;;;;4947833;28;87777;-76
2023/11/28 15:15:52;;;;;;;7.35;4.38;;;7.70;89.50;;;;;;4943972;28;88694;-76
2023/11/28 15:18:17;;;;;;;6.68;4.13;;;7.50;90.60;;;;;;4948484;28;88235;-76
2023/11/28 15:20:43;;;;;;;5.10;3.50;;;7.30;91.60;;;;;;4932426;28;88003;-77
2023/11/28 15:23:09;;;;;;;5.60;3.05;;;7.10;92.50;;;;;;4919203;28;90235;-76
2023/11/28 15:25:35;;;;;;;4.22;2.85;;;6.90;93.30;;;;;;4931810;28;88211;-77
2023/11/28 15:28:01;;;;;;;5.10;3.33;;;6.70;94.00;;;;;;4917119;28;91451;-76
2023/11/28 15:30:28;;;;;;;5.18;2.90;;;6.50;94.80;;;;;;4916193;28;88975;-76
2023/11/28 15:32:53;;;;;;;4.80;2.78;;;6.30;95.60;;;;;;4934750;28;87418;-76
2023/11/28 15:35:19;;;;;;;8.57;2.63;;;6.20;96.80;;;;;;4936201;28;88680;-76
2023/11/28 15:37:48;;;;;;;5.05;2.97;;;6.10;97.70;;;;;;4931631;28;88965;-76
2023/11/28 15:40:17;;;;;;;3.10;2.17;;;5.90;98.80;;;;;;4917419;28;87762;-76
2023/11/28 15:42:44;;;;;;;6.22;2.65;;;5.70;99.30;;;;;;4925614;28;90935;-76
2023/11/28 15:45:10;;;;;;;4.55;3.00;;;5.60;99.80;;;;;;4946287;28;95963;-77
2023/11/28 15:47:37;;;;;;;4.55;3.15;;;5.40;99.90;;;;;;4950133;28;88244;-77
2023/11/28 15:50:07;;;;;;;4.78;2.85;;;5.20;99.90;;;;;;4930662;28;87797;-79
2023/11/28 15:52:32;;;;;;;6.68;3.30;;;5.00;99.90;;;;;;4948289;28;87606;-76
2023/11/28 15:54:59;;;;;;;7.75;3.80;;;4.90;99.90;;;;;;4945806;28;89150;-76
2023/11/28 15:57:27;;;;;;;8.13;3.47;;;4.70;99.90;;;;;;4929355;28;92523;-76
2023/11/28 15:59:58;;;;;;;3.88;2.88;;;4.60;99.90;;;;;;4929575;28;87774;-76
2023/11/28 16:02:27;;;;;;;6.75;4.20;;;4.40;99.90;;;;;;4929600;28;88721;-76
2023/11/28 16:04:56;;;;;;;13.80;5.90;;;4.20;99.90;;;;;;4929817;28;91478;-76
2023/11/28 16:07:23;;;;;;;12.25;4.57;;;4.00;99.90;;;;;;4929595;28;90577;-76
2023/11/28 16:09:48;;;;;;;6.47;4.13;;;3.90;99.90;;;;;;4929568;28;87584;-76
2023/11/28 16:12:14;;;;;;;7.65;4.68;;;3.70;99.90;;;;;;4947569;28;87419;-76
2023/11/28 16:14:40;;;;;;;9.90;5.40;;;3.50;99.90;;;;;;4922982;28;91878;-77
2023/11/28 16:17:05;;;;;;;14.93;7.00;;;3.40;99.90;;;;;;4939931;28;88569;-76
2023/11/28 16:19:31;;;;;;;23.27;11.57;;;3.20;99.90;;;;;;4947094;28;88467;-76
2023/11/28 16:21:57;;;;;;;13.13;6.55;;;3.10;99.90;;;;;;4921164;28;90516;-76
2023/11/28 16:24:23;;;;;;;18.60;7.32;;;3.00;99.90;;;;;;4947366;28;88677;-76
2023/11/28 16:26:50;;;;;;;10.27;6.18;;;2.90;99.90;;;;;;4921184;28;91506;-77
2023/11/28 16:29:16;;;;;;;15.18;5.93;;;2.70;99.90;;;;;;4930074;28;87744;-76
2023/11/28 16:31:42;;;;;;;13.85;6.25;;;2.60;99.90;;;;;;4928566;28;90815;-76
2023/11/28 16:34:08;;;;;;;11.93;6.28;;;2.50;99.90;;;;;;4930228;28;92236;-77
2023/11/28 16:36:33;;;;;;;11.68;6.55;;;2.50;99.90;;;;;;4930577;28;90305;-76
2023/11/28 16:38:59;;;;;;;10.00;5.93;;;2.40;99.90;;;;;;4921820;28;87771;-76
2023/11/28 16:41:25;;;;;;;11.52;6.50;;;2.30;99.90;;;;;;4930584;28;91048;-77